Time;durP1;ratioP1;P1;durP2;ratioP2;P2;SDS_P1;SDS_P2;PMS_P1;PMS_P2;Temp;Humidity;BMP_temperature;BMP_pressure;BME280_temperature;BME280_humidity;BME280_pressure;Samples;Min_cycle;Max_cycle;Signal;HPM_P1;HPM_P2
2022/06/19 00:00:25;;;;;;;16.25;2.63;;;;;;;;;;5075953;28;20139;-67
2022/06/19 00:02:50;;;;;;;13.97;3.00;;;;;;;;;;5085764;28;20020;-67
2022/06/19 00:05:15;;;;;;;17.20;2.83;;;;;;;;;;5094438;28;20047;-67
2022/06/19 00:07:41;;;;;;;20.13;2.80;;;;;;;;;;5094366;28;20020;-67
2022/06/19 00:10:09;;;;;;;20.73;3.58;;;;;;;;;;5084949;28;20032;-67
2022/06/19 00:12:35;;;;;;;15.03;2.57;;;;;;;;;;5094405;28;20041;-67
2022/06/19 00:15:00;;;;;;;19.10;2.93;;;;;;;;;;5094260;28;20029;-67
2022/06/19 00:17:25;;;;;;;17.63;3.07;;;;;;;;;;5087738;28;20024;-67
2022/06/19 00:19:51;;;;;;;14.90;2.47;;;;;;;;;;5093522;28;20031;-66
2022/06/19 00:22:17;;;;;;;16.47;2.57;;;;;;;;;;5082216;28;20407;-66
2022/06/19 00:24:42;;;;;;;14.80;2.67;;;;;;;;;;5071943;28;20024;-66
2022/06/19 00:27:07;;;;;;;21.37;3.30;;;;;;;;;;5067518;28;20086;-67
2022/06/19 00:29:32;;;;;;;21.90;2.80;;;;;;;;;;5067301;28;20779;-66
2022/06/19 00:31:58;;;;;;;14.87;2.90;;;;;;;;;;5079841;28;20415;-66
2022/06/19 00:34:23;;;;;;;17.10;3.30;;;;;;;;;;5073522;28;20024;-66
2022/06/19 00:36:51;;;;;;;15.17;3.30;;;;;;;;;;5079184;28;20063;-67
2022/06/19 00:39:17;;;;;;;19.57;3.17;;;;;;;;;;5087844;28;20027;-67
2022/06/19 00:41:44;;;;;;;19.10;3.00;;;;;;;;;;5080435;28;20029;-66
2022/06/19 00:44:10;;;;;;;18.07;3.50;;;;;;;;;;5074386;28;20483;-67
2022/06/19 00:46:35;;;;;;;16.63;2.90;;;;;;;;;;5087343;28;20110;-66
2022/06/19 00:49:00;;;;;;;12.93;3.20;;;;;;;;;;5093739;28;20539;-66
2022/06/19 00:51:26;;;;;;;19.63;3.17;;;;;;;;;;5087591;28;20111;-67
2022/06/19 00:53:51;;;;;;;15.13;3.53;;;;;;;;;;5090648;28;20070;-66
2022/06/19 00:56:20;;;;;;;19.70;3.80;;;;;;;;;;5075221;28;20056;-67
2022/06/19 00:58:46;;;;;;;19.97;3.47;;;;;;;;;;5073006;28;20062;-66
2022/06/19 01:01:14;;;;;;;17.03;2.90;;;;;;;;;;5073705;28;20035;-67
2022/06/19 01:03:42;;;;;;;15.30;4.23;;;;;;;;;;5074147;28;20399;-66
2022/06/19 01:06:08;;;;;;;18.57;3.20;;;;;;;;;;5087129;28;20391;-66
2022/06/19 01:08:34;;;;;;;20.90;4.13;;;;;;;;;;5090453;28;20016;-67
2022/06/19 01:10:59;;;;;;;16.87;3.47;;;;;;;;;;5078949;28;20081;-66
2022/06/19 01:13:26;;;;;;;20.73;3.47;;;;;;;;;;5086419;28;20024;-66
2022/06/19 01:15:52;;;;;;;20.20;3.53;;;;;;;;;;5081860;28;20027;-66
2022/06/19 01:18:18;;;;;;;27.70;3.80;;;;;;;;;;5078101;28;20031;-66
2022/06/19 01:20:44;;;;;;;16.10;3.23;;;;;;;;;;5084289;28;20380;-67
2022/06/19 01:23:09;;;;;;;17.50;3.40;;;;;;;;;;5077587;28;20101;-66
2022/06/19 01:25:35;;;;;;;20.70;3.93;;;;;;;;;;5074683;28;20020;-66
2022/06/19 01:30:48;;;;;;;21.87;3.70;;;;;;;;;;5077621;28;20130;-66
2022/06/19 01:33:16;;;;;;;16.03;3.20;;;;;;;;;;5081120;28;20020;-66
2022/06/19 01:35:43;;;;;;;17.23;2.97;;;;;;;;;;5076418;28;20016;-66
2022/06/19 01:38:10;;;;;;;21.00;3.50;;;;;;;;;;5074492;28;20523;-66
2022/06/19 01:40:36;;;;;;;24.77;3.63;;;;;;;;;;5074697;28;20103;-66
2022/06/19 01:43:03;;;;;;;19.77;3.33;;;;;;;;;;5071129;28;20048;-66
2022/06/19 01:45:29;;;;;;;21.67;3.37;;;;;;;;;;5074799;28;20103;-66
2022/06/19 01:47:54;;;;;;;19.40;3.17;;;;;;;;;;5075411;28;20111;-66
2022/06/19 01:50:22;;;;;;;18.97;3.43;;;;;;;;;;5072302;28;20044;-67
2022/06/19 01:52:50;;;;;;;20.60;4.33;;;;;;;;;;5072308;28;20059;-66
2022/06/19 01:55:16;;;;;;;20.80;3.00;;;;;;;;;;5075374;28;20518;-66
2022/06/19 01:57:44;;;;;;;22.83;3.90;;;;;;;;;;5074493;28;20123;-66
2022/06/19 02:00:11;;;;;;;16.23;2.70;;;;;;;;;;5080959;28;20023;-66
2022/06/19 02:02:36;;;;;;;19.13;3.07;;;;;;;;;;5071077;28;20026;-66
2022/06/19 02:05:02;;;;;;;24.67;3.17;;;;;;;;;;5074051;28;20032;-66
2022/06/19 02:07:28;;;;;;;22.70;3.13;;;;;;;;;;5076124;28;20024;-66
2022/06/19 02:09:54;;;;;;;23.17;3.17;;;;;;;;;;5071128;28;20457;-66
2022/06/19 02:12:20;;;;;;;15.23;3.10;;;;;;;;;;5078590;28;20016;-66
2022/06/19 02:14:46;;;;;;;13.70;2.77;;;;;;;;;;5091948;28;20016;-66
2022/06/19 02:17:14;;;;;;;18.37;2.97;;;;;;;;;;5076289;28;20028;-66
2022/06/19 02:19:40;;;;;;;22.97;3.20;;;;;;;;;;5078482;28;20534;-66
2022/06/19 02:22:10;;;;;;;13.87;2.50;;;;;;;;;;5075385;28;20062;-66
2022/06/19 02:24:35;;;;;;;18.07;2.83;;;;;;;;;;5077603;28;20102;-67
2022/06/19 02:27:00;;;;;;;19.00;2.90;;;;;;;;;;5072993;28;20109;-66
2022/06/19 02:29:26;;;;;;;15.70;3.00;;;;;;;;;;5085592;28;20050;-66
2022/06/19 02:31:51;;;;;;;15.70;2.40;;;;;;;;;;5074982;28;20036;-66
2022/06/19 02:34:30;;;;;;;16.77;2.67;;;;;;;;;;5072197;28;20024;-67
2022/06/19 02:36:57;;;;;;;16.77;2.70;;;;;;;;;;5071720;28;20472;-67
2022/06/19 02:39:31;;;;;;;22.63;2.90;;;;;;;;;;5073016;28;20108;-66
2022/06/19 02:42:02;;;;;;;19.67;2.77;;;;;;;;;;5071488;28;20426;-67
2022/06/19 02:44:35;;;;;;;15.88;3.00;;;;;;;;;;5083916;28;20032;-67
2022/06/19 02:47:01;;;;;;;15.77;2.97;;;;;;;;;;5084478;28;20539;-67
2022/06/19 02:49:26;;;;;;;14.70;2.97;;;;;;;;;;5072358;28;20107;-67
2022/06/19 02:51:51;;;;;;;16.07;2.87;;;;;;;;;;5076073;28;20468;-66
2022/06/19 02:54:16;;;;;;;12.83;2.70;;;;;;;;;;5079397;28;20024;-67
2022/06/19 02:56:42;;;;;;;10.67;2.60;;;;;;;;;;5086841;28;20140;-67
2022/06/19 02:59:07;;;;;;;15.37;2.90;;;;;;;;;;5079953;28;20016;-67
2022/06/19 03:01:32;;;;;;;15.40;2.53;;;;;;;;;;5071991;28;20438;-67
2022/06/19 03:03:57;;;;;;;14.33;2.40;;;;;;;;;;5071576;28;20024;-67
2022/06/19 03:06:22;;;;;;;17.20;2.40;;;;;;;;;;5071109;28;20025;-67
2022/06/19 03:08:48;;;;;;;15.60;2.60;;;;;;;;;;5073592;28;20040;-67
2022/06/19 03:11:13;;;;;;;14.33;2.70;;;;;;;;;;5086654;28;20543;-67
2022/06/19 03:13:38;;;;;;;22.27;3.80;;;;;;;;;;5078391;28;20024;-67
2022/06/19 03:16:06;;;;;;;17.13;2.63;;;;;;;;;;5076105;28;20016;-67
2022/06/19 03:18:31;;;;;;;18.80;3.20;;;;;;;;;;5071246;28;20029;-67
2022/06/19 03:20:56;;;;;;;14.70;3.33;;;;;;;;;;5079037;28;20090;-67
2022/06/19 03:23:22;;;;;;;18.10;2.73;;;;;;;;;;5072967;28;20024;-66
2022/06/19 03:25:47;;;;;;;20.23;2.70;;;;;;;;;;5078219;28;20542;-67
2022/06/19 03:28:12;;;;;;;21.53;3.20;;;;;;;;;;5071622;28;20024;-67
2022/06/19 03:30:37;;;;;;;20.60;2.87;;;;;;;;;;5070234;28;20025;-67
2022/06/19 03:33:03;;;;;;;14.00;2.50;;;;;;;;;;5085448;28;20047;-67
2022/06/19 03:35:29;;;;;;;17.33;3.20;;;;;;;;;;5070471;28;20025;-67
2022/06/19 03:37:54;;;;;;;16.00;2.50;;;;;;;;;;5072973;28;20017;-67
2022/06/19 03:40:19;;;;;;;19.57;2.80;;;;;;;;;;5071251;28;20023;-67
2022/06/19 03:42:44;;;;;;;20.40;3.20;;;;;;;;;;5081441;28;20020;-67
2022/06/19 03:45:10;;;;;;;13.43;2.37;;;;;;;;;;5075075;28;20460;-67
2022/06/19 03:47:35;;;;;;;20.13;2.80;;;;;;;;;;5082173;28;20061;-67
2022/06/19 03:50:01;;;;;;;15.03;2.80;;;;;;;;;;5077200;28;20032;-67
2022/06/19 03:52:26;;;;;;;18.93;2.73;;;;;;;;;;5076883;28;20033;-67
2022/06/19 03:54:52;;;;;;;12.60;2.10;;;;;;;;;;5073143;28;20099;-67
2022/06/19 03:57:17;;;;;;;20.73;2.80;;;;;;;;;;5078133;28;20020;-67
2022/06/19 03:59:42;;;;;;;19.20;2.60;;;;;;;;;;5077817;28;20008;-67
2022/06/19 04:02:09;;;;;;;17.07;3.23;;;;;;;;;;5079998;28;20107;-67
2022/06/19 04:04:35;;;;;;;23.40;3.33;;;;;;;;;;5081744;28;20055;-67
2022/06/19 04:07:00;;;;;;;16.53;2.40;;;;;;;;;;5089115;28;20047;-67
2022/06/19 04:09:25;;;;;;;16.27;2.63;;;;;;;;;;5077870;28;20056;-67
2022/06/19 04:11:50;;;;;;;14.57;2.90;;;;;;;;;;5080024;28;20079;-67
2022/06/19 04:14:16;;;;;;;14.33;2.60;;;;;;;;;;5081878;28;20020;-67
2022/06/19 04:16:42;;;;;;;16.55;2.35;;;;;;;;;;5077179;28;20012;-67
2022/06/19 04:19:08;;;;;;;16.58;2.50;;;;;;;;;;5074971;28;20434;-67
2022/06/19 04:21:35;;;;;;;20.23;2.40;;;;;;;;;;5074875;28;20077;-67
2022/06/19 04:24:04;;;;;;;15.85;2.65;;;;;;;;;;5086361;28;20028;-67
2022/06/19 04:26:30;;;;;;;15.32;2.25;;;;;;;;;;5075188;28;20103;-67
2022/06/19 04:28:56;;;;;;;16.30;2.90;;;;;;;;;;5081494;28;20519;-67
2022/06/19 04:31:21;;;;;;;13.50;2.17;;;;;;;;;;5076698;28;20052;-67
2022/06/19 04:33:47;;;;;;;13.00;2.60;;;;;;;;;;5077747;28;20114;-67
2022/06/19 04:36:13;;;;;;;16.80;2.50;;;;;;;;;;5075646;28;20479;-67
2022/06/19 04:38:40;;;;;;;15.88;2.20;;;;;;;;;;5080290;28;20585;-67
2022/06/19 04:41:11;;;;;;;17.15;2.50;;;;;;;;;;5081414;28;20020;-67
2022/06/19 04:43:36;;;;;;;11.75;2.10;;;;;;;;;;5085667;28;20431;-66
2022/06/19 04:46:03;;;;;;;13.73;2.35;;;;;;;;;;5080972;28;20033;-67
2022/06/19 04:48:28;;;;;;;14.25;2.28;;;;;;;;;;5080241;28;20034;-67
2022/06/19 04:50:53;;;;;;;15.95;2.28;;;;;;;;;;5077992;28;20527;-66
2022/06/19 04:53:19;;;;;;;11.55;2.13;;;;;;;;;;5076230;28;20021;-67
2022/06/19 04:55:44;;;;;;;13.65;2.80;;;;;;;;;;5076772;28;20016;-66
2022/06/19 04:58:10;;;;;;;15.10;2.28;;;;;;;;;;5084883;28;20420;-67
2022/06/19 05:00:35;;;;;;;18.67;2.60;;;;;;;;;;5088385;28;21617;-67
2022/06/19 05:03:00;;;;;;;18.80;4.10;;;;;;;;;;5080680;28;20027;-67
2022/06/19 05:05:26;;;;;;;16.23;2.42;;;;;;;;;;5075560;28;20090;-67
2022/06/19 05:07:51;;;;;;;15.02;2.50;;;;;;;;;;5084895;28;20491;-66
2022/06/19 05:10:16;;;;;;;13.60;2.17;;;;;;;;;;5074484;28;20033;-67
2022/06/19 05:12:41;;;;;;;14.98;2.50;;;;;;;;;;5074453;28;20020;-67
2022/06/19 05:15:07;;;;;;;12.25;1.95;;;;;;;;;;5076089;28;20021;-67
2022/06/19 05:17:33;;;;;;;13.48;2.00;;;;;;;;;;5074400;28;20110;-67
2022/06/19 05:19:58;;;;;;;15.15;2.10;;;;;;;;;;5081024;28;20020;-67
2022/06/19 05:22:24;;;;;;;14.52;2.35;;;;;;;;;;5074444;28;20028;-67
2022/06/19 05:24:49;;;;;;;14.15;2.15;;;;;;;;;;5078154;28;20507;-67
2022/06/19 05:27:14;;;;;;;10.40;1.90;;;;;;;;;;5074334;28;20031;-67
2022/06/19 05:29:39;;;;;;;18.90;2.45;;;;;;;;;;5073642;28;20032;-66
2022/06/19 05:32:05;;;;;;;14.00;2.53;;;;;;;;;;5076659;28;20020;-67
2022/06/19 05:34:31;;;;;;;13.88;2.42;;;;;;;;;;5079295;28;20021;-67
2022/06/19 05:36:56;;;;;;;13.73;2.22;;;;;;;;;;5072059;28;21509;-67
2022/06/19 05:39:21;;;;;;;15.80;2.60;;;;;;;;;;5076094;28;20047;-67
2022/06/19 05:41:46;;;;;;;17.20;2.78;;;;;;;;;;5075633;28;20029;-67
2022/06/19 05:44:12;;;;;;;15.13;2.60;;;;;;;;;;5074455;28;20020;-67
2022/06/19 05:46:37;;;;;;;15.65;2.33;;;;;;;;;;5072776;28;20107;-67
2022/06/19 05:49:02;;;;;;;12.65;2.85;;;;;;;;;;5073820;28;20120;-67
2022/06/19 05:51:28;;;;;;;17.00;2.28;;;;;;;;;;5077542;28;20039;-67
2022/06/19 05:53:54;;;;;;;11.70;1.98;;;;;;;;;;5077638;28;20036;-67
2022/06/19 05:56:20;;;;;;;12.65;2.17;;;;;;;;;;5073623;28;20236;-68
2022/06/19 05:58:45;;;;;;;15.70;2.45;;;;;;;;;;5078755;28;20021;-67
2022/06/19 06:01:12;;;;;;;8.38;2.00;;;;;;;;;;5075126;28;20087;-66
2022/06/19 06:03:38;;;;;;;12.15;2.95;;;;;;;;;;5076558;28;20028;-67
2022/06/19 06:06:05;;;;;;;14.10;2.25;;;;;;;;;;5080648;28;20020;-67
2022/06/19 06:08:30;;;;;;;11.80;1.85;;;;;;;;;;5077035;28;20471;-67
2022/06/19 06:10:56;;;;;;;8.43;1.80;;;;;;;;;;5078921;28;20035;-67
2022/06/19 06:13:22;;;;;;;12.05;1.85;;;;;;;;;;5074932;28;20016;-67
2022/06/19 06:15:48;;;;;;;10.48;1.80;;;;;;;;;;5073450;28;20506;-67
2022/06/19 06:18:13;;;;;;;10.48;1.83;;;;;;;;;;5073786;28;20039;-67
2022/06/19 06:20:39;;;;;;;11.85;2.42;;;;;;;;;;5086383;28;20020;-67
2022/06/19 06:23:04;;;;;;;8.13;1.50;;;;;;;;;;5079487;28;20029;-67
2022/06/19 06:25:29;;;;;;;8.88;1.58;;;;;;;;;;5088718;28;20028;-66
2022/06/19 06:27:54;;;;;;;9.38;2.03;;;;;;;;;;5087418;28;20086;-67
2022/06/19 06:30:20;;;;;;;10.90;1.73;;;;;;;;;;5071188;28;20132;-67
2022/06/19 06:32:45;;;;;;;10.25;1.75;;;;;;;;;;5074393;28;20441;-67
2022/06/19 06:35:10;;;;;;;8.52;1.70;;;;;;;;;;5073585;28;20032;-67
2022/06/19 06:37:36;;;;;;;8.73;1.65;;;;;;;;;;5077976;28;20355;-67
2022/06/19 06:40:03;;;;;;;9.95;1.60;;;;;;;;;;5077223;28;20020;-66
2022/06/19 06:42:29;;;;;;;11.43;1.63;;;;;;;;;;5079557;28;20035;-68
2022/06/19 06:44:54;;;;;;;10.07;1.73;;;;;;;;;;5071733;28;20029;-67
2022/06/19 06:47:19;;;;;;;7.53;1.45;;;;;;;;;;5072911;28;20024;-69
2022/06/19 06:49:44;;;;;;;8.65;1.60;;;;;;;;;;5072215;28;20035;-67
2022/06/19 06:52:10;;;;;;;9.43;1.40;;;;;;;;;;5071908;28;20114;-69
2022/06/19 06:54:36;;;;;;;6.05;1.42;;;;;;;;;;5086911;28;20019;-69
2022/06/19 06:57:02;;;;;;;7.88;1.42;;;;;;;;;;5086627;28;20671;-68
2022/06/19 06:59:27;;;;;;;9.65;1.70;;;;;;;;;;5089850;28;20046;-67
2022/06/19 07:01:52;;;;;;;8.85;1.70;;;;;;;;;;5079207;28;20047;-67
2022/06/19 07:04:17;;;;;;;8.23;1.60;;;;;;;;;;5082306;28;20358;-67
2022/06/19 07:06:43;;;;;;;9.75;1.70;;;;;;;;;;5077990;28;20415;-68
2022/06/19 07:09:08;;;;;;;6.72;1.50;;;;;;;;;;5076348;28;20472;-67
2022/06/19 07:11:35;;;;;;;8.85;1.60;;;;;;;;;;5075414;28;20490;-68
2022/06/19 07:14:00;;;;;;;4.95;1.27;;;;;;;;;;5079800;28;20023;-68
2022/06/19 07:16:25;;;;;;;8.98;1.70;;;;;;;;;;5082049;28;20017;-68
2022/06/19 07:18:52;;;;;;;9.23;1.40;;;;;;;;;;5074564;28;20027;-68
2022/06/19 07:21:17;;;;;;;9.60;1.90;;;;;;;;;;5072150;28;20027;-68
2022/06/19 07:23:42;;;;;;;10.98;2.00;;;;;;;;;;5075226;28;20012;-69
2022/06/19 07:26:08;;;;;;;9.15;1.70;;;;;;;;;;5076645;28;20043;-68
2022/06/19 07:28:34;;;;;;;7.55;1.50;;;;;;;;;;5085894;28;20028;-68
2022/06/19 07:30:59;;;;;;;9.02;1.80;;;;;;;;;;5071386;28;20085;-68
2022/06/19 07:33:24;;;;;;;5.00;1.30;;;;;;;;;;5079343;28;20023;-68
2022/06/19 07:35:49;;;;;;;5.22;1.27;;;;;;;;;;5091551;28;20027;-69
2022/06/19 07:38:15;;;;;;;7.50;1.52;;;;;;;;;;5080772;28;20099;-68
2022/06/19 07:40:40;;;;;;;5.57;1.20;;;;;;;;;;5074589;28;20508;-69
2022/06/19 07:43:06;;;;;;;7.35;1.65;;;;;;;;;;5076074;28;20602;-69
2022/06/19 07:45:31;;;;;;;6.90;1.50;;;;;;;;;;5074544;28;20016;-68
2022/06/19 07:50:41;;;;;;;7.80;1.50;;;;;;;;;;5078848;28;20035;-69
2022/06/19 07:53:06;;;;;;;7.70;1.85;;;;;;;;;;5076752;28;20408;-69
2022/06/19 07:55:32;;;;;;;8.85;1.73;;;;;;;;;;5073605;28;20016;-69
2022/06/19 07:57:58;;;;;;;11.80;1.85;;;;;;;;;;5075219;28;20103;-68
2022/06/19 08:00:25;;;;;;;7.53;1.55;;;;;;;;;;5074309;28;20034;-68
2022/06/19 08:02:51;;;;;;;8.68;1.98;;;;;;;;;;5081285;28;20046;-68
2022/06/19 08:05:17;;;;;;;6.78;1.55;;;;;;;;;;5081468;28;20408;-68
2022/06/19 08:07:43;;;;;;;6.00;1.42;;;;;;;;;;5084688;28;20078;-68
2022/06/19 08:10:09;;;;;;;8.27;1.50;;;;;;;;;;5082429;28;20073;-68
2022/06/19 08:12:34;;;;;;;6.60;1.40;;;;;;;;;;5076555;28;20024;-69
2022/06/19 08:14:59;;;;;;;5.68;1.30;;;;;;;;;;5081372;28;20093;-68
2022/06/19 08:17:25;;;;;;;7.70;1.40;;;;;;;;;;5086812;28;20426;-68
2022/06/19 08:19:50;;;;;;;7.10;1.38;;;;;;;;;;5080209;28;20047;-69
2022/06/19 08:22:16;;;;;;;5.95;1.40;;;;;;;;;;5074028;28;20475;-69
2022/06/19 08:24:41;;;;;;;11.55;1.80;;;;;;;;;;5072206;28;20090;-69
2022/06/19 08:27:06;;;;;;;8.55;1.40;;;;;;;;;;5079222;28;20028;-68
2022/06/19 08:29:33;;;;;;;8.90;1.40;;;;;;;;;;5076062;28;20107;-69
2022/06/19 08:31:58;;;;;;;6.00;1.40;;;;;;;;;;5070673;28;20052;-69
2022/06/19 08:34:24;;;;;;;7.50;1.60;;;;;;;;;;5071945;28;20105;-69
2022/06/19 08:36:49;;;;;;;7.20;1.40;;;;;;;;;;5079860;28;20671;-68
2022/06/19 08:39:16;;;;;;;6.10;1.52;;;;;;;;;;5073170;28;20035;-69
2022/06/19 08:41:41;;;;;;;9.23;1.10;;;;;;;;;;5072487;28;20026;-69
2022/06/19 08:44:18;;;;;;;6.20;1.40;;;;;;;;;;5074848;28;20408;-69
2022/06/19 08:46:46;;;;;;;4.55;1.10;;;;;;;;;;5075295;28;20028;-68
2022/06/19 08:49:41;;;;;;;7.60;1.48;;;;;;;;;;5073884;28;20023;-69
2022/06/19 08:52:14;;;;;;;9.15;1.63;;;;;;;;;;5068927;28;20047;-69
2022/06/19 08:54:45;;;;;;;6.07;1.17;;;;;;;;;;5080709;28;20364;-68
2022/06/19 08:57:16;;;;;;;5.38;1.20;;;;;;;;;;5077872;28;20033;-68
2022/06/19 08:59:53;;;;;;;5.30;1.23;;;;;;;;;;5071653;28;20020;-68
2022/06/19 09:02:25;;;;;;;6.78;1.23;;;;;;;;;;5079212;28;20059;-68
2022/06/19 09:07:56;;;;;;;7.38;1.23;;;;;;;;;;5080917;28;20074;-68
2022/06/19 09:10:24;;;;;;;7.07;1.33;;;;;;;;;;5070746;28;20035;-68
2022/06/19 09:12:49;;;;;;;9.80;1.30;;;;;;;;;;5078848;28;20054;-69
2022/06/19 09:15:20;;;;;;;7.53;1.40;;;;;;;;;;5083217;28;20024;-68
2022/06/19 09:18:04;;;;;;;10.00;1.60;;;;;;;;;;5078616;28;20472;-69
2022/06/19 09:20:48;;;;;;;6.05;1.25;;;;;;;;;;5073120;28;20052;-68
2022/06/19 09:23:13;;;;;;;5.97;1.30;;;;;;;;;;5078928;28;20027;-68
2022/06/19 09:25:48;;;;;;;10.13;1.40;;;;;;;;;;5076600;28;20263;-68
2022/06/19 09:28:26;;;;;;;9.68;1.35;;;;;;;;;;5076227;28;20020;-68
2022/06/19 09:30:59;;;;;;;8.93;1.50;;;;;;;;;;5074497;28;20052;-68
2022/06/19 09:33:29;;;;;;;6.05;1.58;;;;;;;;;;5072046;28;20118;-68
2022/06/19 09:35:54;;;;;;;6.65;1.48;;;;;;;;;;5077263;28;20024;-68
2022/06/19 09:38:22;;;;;;;7.30;1.50;;;;;;;;;;5070960;28;20020;-68
2022/06/19 09:40:52;;;;;;;6.07;1.33;;;;;;;;;;5086643;28;20093;-68
2022/06/19 09:43:22;;;;;;;7.97;1.55;;;;;;;;;;5085492;28;20151;-68
2022/06/19 09:45:54;;;;;;;6.35;1.50;;;;;;;;;;5080492;28;20028;-68
2022/06/19 09:48:29;;;;;;;7.85;1.50;;;;;;;;;;5086256;28;20020;-68
2022/06/19 09:51:15;;;;;;;3.85;1.17;;;;;;;;;;5082262;28;20115;-67
2022/06/19 09:53:43;;;;;;;5.40;1.30;;;;;;;;;;5068991;28;20031;-68
2022/06/19 09:56:11;;;;;;;14.40;1.80;;;;;;;;;;5077950;28;20028;-68
2022/06/19 09:58:40;;;;;;;9.32;1.48;;;;;;;;;;5079866;28;20373;-68
2022/06/19 10:01:06;;;;;;;7.60;1.90;;;;;;;;;;5078120;28;20023;-68
2022/06/19 10:03:32;;;;;;;7.20;1.52;;;;;;;;;;5075227;28;20412;-68
2022/06/19 10:05:59;;;;;;;8.35;1.70;;;;;;;;;;5081329;28;20035;-68
2022/06/19 10:08:31;;;;;;;6.63;1.33;;;;;;;;;;5083764;28;20032;-68
2022/06/19 10:10:59;;;;;;;7.50;1.38;;;;;;;;;;5086915;28;20050;-67
2022/06/19 10:13:24;;;;;;;6.95;1.58;;;;;;;;;;5084847;28;20031;-68
2022/06/19 10:15:51;;;;;;;10.25;1.55;;;;;;;;;;5087791;28;20012;-67
2022/06/19 10:18:19;;;;;;;10.45;1.83;;;;;;;;;;5089693;28;20016;-67
2022/06/19 10:20:47;;;;;;;11.00;2.10;;;;;;;;;;5084182;28;20448;-67
2022/06/19 10:23:16;;;;;;;7.57;1.80;;;;;;;;;;5080800;28;20044;-67
2022/06/19 10:25:47;;;;;;;7.55;1.60;;;;;;;;;;5076471;28;20048;-68
2022/06/19 10:28:31;;;;;;;9.73;1.63;;;;;;;;;;5085582;28;20016;-68
2022/06/19 10:31:05;;;;;;;8.73;1.30;;;;;;;;;;5085336;28;20028;-67
2022/06/19 10:33:39;;;;;;;6.18;1.58;;;;;;;;;;5086703;28;20096;-67
2022/06/19 10:36:10;;;;;;;6.93;1.30;;;;;;;;;;5085009;28;20023;-67
2022/06/19 10:38:47;;;;;;;8.70;1.50;;;;;;;;;;5084582;28;20024;-67
2022/06/19 10:44:18;;;;;;;8.20;1.55;;;;;;;;;;5086874;28;20050;-68
2022/06/19 10:46:47;;;;;;;8.68;1.90;;;;;;;;;;5085771;28;20024;-68
2022/06/19 10:49:15;;;;;;;8.88;2.25;;;;;;;;;;5086578;28;20023;-67
2022/06/19 10:51:50;;;;;;;10.95;1.70;;;;;;;;;;5079706;28;20067;-67
2022/06/19 10:54:19;;;;;;;6.22;1.63;;;;;;;;;;5078037;28;20016;-67
2022/06/19 10:56:44;;;;;;;10.85;1.80;;;;;;;;;;5083576;28;20023;-67
2022/06/19 10:59:09;;;;;;;13.75;2.65;;;;;;;;;;5080901;28;20387;-67
2022/06/19 11:04:23;;;;;;;8.68;2.10;;;;;;;;;;5073901;28;20130;-67
2022/06/19 11:06:50;;;;;;;10.48;2.30;;;;;;;;;;5082212;28;20048;-67
2022/06/19 11:09:18;;;;;;;10.20;1.98;;;;;;;;;;5085989;28;20032;-67
2022/06/19 11:11:44;;;;;;;10.43;2.00;;;;;;;;;;5089662;28;20422;-67
2022/06/19 11:14:27;;;;;;;11.82;2.28;;;;;;;;;;5079966;28;20048;-67
2022/06/19 11:17:01;;;;;;;11.82;2.85;;;;;;;;;;5079813;28;20023;-67
2022/06/19 11:19:45;;;;;;;10.00;2.47;;;;;;;;;;5085134;28;20020;-67
2022/06/19 11:22:30;;;;;;;8.38;2.40;;;;;;;;;;5092530;28;20518;-67
2022/06/19 11:24:56;;;;;;;8.15;1.73;;;;;;;;;;5081030;28;20028;-67
2022/06/19 11:27:23;;;;;;;7.93;1.90;;;;;;;;;;5076252;28;20537;-67
2022/06/19 11:29:50;;;;;;;10.43;1.90;;;;;;;;;;5077500;28;20039;-67
2022/06/19 11:32:20;;;;;;;8.65;1.80;;;;;;;;;;5075383;28;20621;-67
2022/06/19 11:35:15;;;;;;;7.60;1.90;;;;;;;;;;5086261;28;20024;-67
2022/06/19 11:37:54;;;;;;;8.40;2.00;;;;;;;;;;5067713;28;20540;-67
2022/06/19 11:40:27;;;;;;;7.75;1.92;;;;;;;;;;5086344;28;20373;-67
2022/06/19 11:42:57;;;;;;;6.68;1.85;;;;;;;;;;5087385;28;20035;-67
2022/06/19 11:45:34;;;;;;;7.35;1.60;;;;;;;;;;5090651;28;20076;-67
2022/06/19 11:48:01;;;;;;;7.90;2.08;;;;;;;;;;5081221;28;20028;-67
2022/06/19 11:50:32;;;;;;;8.13;1.73;;;;;;;;;;5080004;28;20032;-67
2022/06/19 11:52:57;;;;;;;9.25;1.60;;;;;;;;;;5081492;28;20043;-67
2022/06/19 11:55:29;;;;;;;5.38;1.50;;;;;;;;;;5088177;28;20416;-67
2022/06/19 11:57:56;;;;;;;8.35;1.70;;;;;;;;;;5081657;28;20550;-67
2022/06/19 12:00:31;;;;;;;5.07;1.45;;;;;;;;;;5079615;28;20031;-67
2022/06/19 12:02:58;;;;;;;4.80;1.50;;;;;;;;;;5075752;28;20111;-67
2022/06/19 12:05:27;;;;;;;5.43;1.42;;;;;;;;;;5073635;28;20689;-68
2022/06/19 12:07:52;;;;;;;5.28;1.45;;;;;;;;;;5076058;28;20020;-68
2022/06/19 12:10:21;;;;;;;6.60;1.48;;;;;;;;;;5076513;28;20494;-67
2022/06/19 12:12:53;;;;;;;4.70;1.02;;;;;;;;;;5075971;28;20147;-68
2022/06/19 12:15:23;;;;;;;4.35;1.17;;;;;;;;;;5073932;28;20487;-67
2022/06/19 12:17:55;;;;;;;5.77;1.10;;;;;;;;;;5073455;28;20426;-67
2022/06/19 12:20:22;;;;;;;4.82;1.30;;;;;;;;;;5086266;28;20282;-67
2022/06/19 12:22:47;;;;;;;5.57;1.30;;;;;;;;;;5072894;28;20032;-67
2022/06/19 12:25:35;;;;;;;5.18;1.30;;;;;;;;;;5080365;28;20621;-67
2022/06/19 12:28:20;;;;;;;5.05;1.60;;;;;;;;;;5070800;28;20028;-67
2022/06/19 12:30:58;;;;;;;4.85;1.25;;;;;;;;;;5073008;28;20024;-67
2022/06/19 12:33:29;;;;;;;4.93;1.23;;;;;;;;;;5073382;28;20021;-67
2022/06/19 12:35:55;;;;;;;5.78;1.50;;;;;;;;;;5070455;28;20028;-67
2022/06/19 12:38:21;;;;;;;6.90;1.40;;;;;;;;;;5078861;28;20024;-67
2022/06/19 12:40:50;;;;;;;4.28;1.20;;;;;;;;;;5071907;28;20036;-67
2022/06/19 12:43:19;;;;;;;5.50;1.30;;;;;;;;;;5075606;28;20020;-67
2022/06/19 12:45:56;;;;;;;8.13;1.27;;;;;;;;;;5086483;28;20024;-67
2022/06/19 12:48:22;;;;;;;5.60;1.40;;;;;;;;;;5075565;28;20012;-67
2022/06/19 12:51:02;;;;;;;5.82;1.30;;;;;;;;;;5073472;28;20043;-68
2022/06/19 12:53:27;;;;;;;5.13;1.20;;;;;;;;;;5082447;28;20384;-67
2022/06/19 12:56:05;;;;;;;5.03;1.20;;;;;;;;;;5083295;28;20262;-67
2022/06/19 12:58:49;;;;;;;4.13;1.10;;;;;;;;;;5070799;28;20028;-67
2022/06/19 13:01:17;;;;;;;5.63;1.30;;;;;;;;;;5073406;28;20139;-68
2022/06/19 13:03:57;;;;;;;4.78;1.20;;;;;;;;;;5077820;28;20036;-67
2022/06/19 13:06:41;;;;;;;5.75;1.27;;;;;;;;;;5073361;28;20027;-67
2022/06/19 13:09:15;;;;;;;5.05;1.35;;;;;;;;;;5081872;28;20541;-67
2022/06/19 13:11:40;;;;;;;3.50;1.30;;;;;;;;;;5076338;28;20522;-67
2022/06/19 13:14:27;;;;;;;5.88;1.55;;;;;;;;;;5086010;28;20016;-67
2022/06/19 13:17:01;;;;;;;4.65;1.45;;;;;;;;;;5082066;28;20082;-67
2022/06/19 13:19:45;;;;;;;4.45;1.50;;;;;;;;;;5079981;28;20024;-67
2022/06/19 13:22:20;;;;;;;4.72;1.15;;;;;;;;;;5078653;28;20024;-67
2022/06/19 13:24:50;;;;;;;6.45;1.33;;;;;;;;;;5076214;28;20765;-67
2022/06/19 13:27:21;;;;;;;4.03;1.30;;;;;;;;;;5086890;28;20065;-68
2022/06/19 13:30:05;;;;;;;4.32;1.20;;;;;;;;;;5085921;28;20831;-67
2022/06/19 13:32:36;;;;;;;5.47;1.63;;;;;;;;;;5071682;28;20064;-67
2022/06/19 13:35:07;;;;;;;3.85;1.20;;;;;;;;;;5084247;28;20020;-67
2022/06/19 13:37:44;;;;;;;5.20;1.38;;;;;;;;;;5087614;28;20079;-68
2022/06/19 13:40:28;;;;;;;4.15;1.17;;;;;;;;;;5082661;28;20016;-67
2022/06/19 13:42:59;;;;;;;5.75;1.25;;;;;;;;;;5073785;28;20078;-67
2022/06/19 13:45:33;;;;;;;5.13;1.50;;;;;;;;;;5074558;28;20499;-67
2022/06/19 13:48:20;;;;;;;4.22;1.40;;;;;;;;;;5071729;28;20036;-67
2022/06/19 13:51:04;;;;;;;4.55;1.30;;;;;;;;;;5080859;28;20272;-67
2022/06/19 13:53:37;;;;;;;6.88;1.90;;;;;;;;;;5077727;28;21102;-68
2022/06/19 13:56:10;;;;;;;5.30;1.60;;;;;;;;;;5076076;28;20395;-67
2022/06/19 13:58:54;;;;;;;8.50;2.22;;;;;;;;;;5078757;28;20081;-67
2022/06/19 14:01:20;;;;;;;8.18;1.50;;;;;;;;;;5075290;28;20024;-67
2022/06/19 14:06:42;;;;;;;6.13;1.48;;;;;;;;;;5072036;28;20036;-67
2022/06/19 14:09:13;;;;;;;5.38;1.40;;;;;;;;;;5077320;28;20036;-67
2022/06/19 14:14:25;;;;;;;6.00;1.40;;;;;;;;;;5088312;28;20486;-67
2022/06/19 14:17:14;;;;;;;4.25;1.40;;;;;;;;;;5084612;28;20019;-68
2022/06/19 14:19:43;;;;;;;6.53;1.40;;;;;;;;;;5071729;28;20024;-67
2022/06/19 14:22:24;;;;;;;6.90;1.63;;;;;;;;;;5072871;28;20028;-68
2022/06/19 14:24:52;;;;;;;8.75;1.60;;;;;;;;;;5076398;28;20062;-67
2022/06/19 14:27:23;;;;;;;11.93;1.65;;;;;;;;;;5068064;28;20032;-67
2022/06/19 14:29:48;;;;;;;;;;;;;;;;;;5083301;28;20027;-67
2022/06/19 14:32:16;;;;;;;6.93;1.60;;;;;;;;;;5079993;28;19923;-68
2022/06/19 14:34:45;;;;;;;5.75;1.60;;;;;;;;;;5074191;28;20365;-68
2022/06/19 14:37:26;;;;;;;7.63;1.60;;;;;;;;;;5079290;28;20024;-68
2022/06/19 14:39:51;;;;;;;7.10;1.83;;;;;;;;;;5070440;28;20032;-68
2022/06/19 14:42:17;;;;;;;7.47;1.70;;;;;;;;;;5077374;28;20097;-68
2022/06/19 14:44:52;;;;;;;7.15;2.03;;;;;;;;;;5079238;28;20020;-68
2022/06/19 14:47:19;;;;;;;7.50;2.03;;;;;;;;;;5077319;28;20385;-68
2022/06/19 14:49:58;;;;;;;5.57;1.70;;;;;;;;;;5073139;28;20736;-68
2022/06/19 14:52:24;;;;;;;7.25;1.50;;;;;;;;;;5078571;28;20052;-68
2022/06/19 14:54:55;;;;;;;6.72;1.60;;;;;;;;;;5087112;28;20101;-68
2022/06/19 14:57:22;;;;;;;6.25;2.05;;;;;;;;;;5070713;28;20024;-68
2022/06/19 14:59:52;;;;;;;5.07;1.60;;;;;;;;;;5075626;28;20039;-68
2022/06/19 15:02:20;;;;;;;6.00;1.58;;;;;;;;;;5086817;28;20031;-68